sensor_id;sensor_type;location;lat;lon;timestamp;temperature;humidity
46730;DHT22;32476;50.002;11.854;2022-09-29T00:00:43;3.40;99.90
46730;DHT22;32476;50.002;11.854;2022-09-29T00:03:09;3.40;99.90
46730;DHT22;32476;50.002;11.854;2022-09-29T00:05:36;3.30;99.90
46730;DHT22;32476;50.002;11.854;2022-09-29T00:08:02;3.30;99.90
46730;DHT22;32476;50.002;11.854;2022-09-29T00:10:28;3.30;99.90
46730;DHT22;32476;50.002;11.854;2022-09-29T00:12:56;3.20;99.90
46730;DHT22;32476;50.002;11.854;2022-09-29T00:15:22;3.20;99.90
46730;DHT22;32476;50.002;11.854;2022-09-29T00:17:48;3.20;99.90
46730;DHT22;32476;50.002;11.854;2022-09-29T00:20:15;3.20;99.90
46730;DHT22;32476;50.002;11.854;2022-09-29T00:22:41;3.20;99.90
46730;DHT22;32476;50.002;11.854;2022-09-29T00:25:07;3.20;99.90
46730;DHT22;32476;50.002;11.854;2022-09-29T00:27:35;3.10;99.90
46730;DHT22;32476;50.002;11.854;2022-09-29T00:30:01;3.00;99.90
46730;DHT22;32476;50.002;11.854;2022-09-29T00:32:26;3.00;99.90
46730;DHT22;32476;50.002;11.854;2022-09-29T00:34:54;2.90;99.90
46730;DHT22;32476;50.002;11.854;2022-09-29T00:37:20;2.80;99.90
46730;DHT22;32476;50.002;11.854;2022-09-29T00:39:46;2.80;99.90
46730;DHT22;32476;50.002;11.854;2022-09-29T00:42:17;2.80;99.90
46730;DHT22;32476;50.002;11.854;2022-09-29T00:45:14;2.90;99.90
46730;DHT22;32476;50.002;11.854;2022-09-29T00:47:45;2.90;99.90
46730;DHT22;32476;50.002;11.854;2022-09-29T00:50:22;2.90;99.90
46730;DHT22;32476;50.002;11.854;2022-09-29T00:53:01;2.90;99.90
46730;DHT22;32476;50.002;11.854;2022-09-29T00:55:43;2.90;99.90
46730;DHT22;32476;50.002;11.854;2022-09-29T00:58:34;2.90;99.90
46730;DHT22;32476;50.002;11.854;2022-09-29T01:01:22;2.90;99.90
46730;DHT22;32476;50.002;11.854;2022-09-29T01:03:55;2.80;99.90
46730;DHT22;32476;50.002;11.854;2022-09-29T01:06:26;2.80;99.90
46730;DHT22;32476;50.002;11.854;2022-09-29T01:09:09;2.80;99.90
46730;DHT22;32476;50.002;11.854;2022-09-29T01:11:39;2.80;99.90
46730;DHT22;32476;50.002;11.854;2022-09-29T01:14:07;2.70;99.90
46730;DHT22;32476;50.002;11.854;2022-09-29T01:16:35;2.80;99.90
46730;DHT22;32476;50.002;11.854;2022-09-29T01:19:11;2.80;99.90
46730;DHT22;32476;50.002;11.854;2022-09-29T01:22:00;2.90;99.90
46730;DHT22;32476;50.002;11.854;2022-09-29T01:24:54;2.80;99.90
46730;DHT22;32476;50.002;11.854;2022-09-29T01:34:14;2.80;99.90
46730;DHT22;32476;50.002;11.854;2022-09-29T01:37:36;2.90;99.90
46730;DHT22;32476;50.002;11.854;2022-09-29T01:40:21;3.00;99.90
46730;DHT22;32476;50.002;11.854;2022-09-29T01:42:56;3.10;99.90
46730;DHT22;32476;50.002;11.854;2022-09-29T01:45:33;3.00;99.90
46730;DHT22;32476;50.002;11.854;2022-09-29T01:48:07;3.00;99.90
46730;DHT22;32476;50.002;11.854;2022-09-29T01:50:46;2.90;99.90
46730;DHT22;32476;50.002;11.854;2022-09-29T01:53:18;3.00;99.90
46730;DHT22;32476;50.002;11.854;2022-09-29T01:55:53;3.00;99.90
46730;DHT22;32476;50.002;11.854;2022-09-29T01:58:29;3.00;99.90
46730;DHT22;32476;50.002;11.854;2022-09-29T02:01:04;3.00;99.90
46730;DHT22;32476;50.002;11.854;2022-09-29T02:03:56;2.90;99.90
46730;DHT22;32476;50.002;11.854;2022-09-29T02:06:41;2.90;99.90
46730;DHT22;32476;50.002;11.854;2022-09-29T02:09:16;2.80;99.90
46730;DHT22;32476;50.002;11.854;2022-09-29T02:11:47;2.80;99.90
46730;DHT22;32476;50.002;11.854;2022-09-29T02:14:19;2.80;99.90
46730;DHT22;32476;50.002;11.854;2022-09-29T02:17:03;2.90;99.90
46730;DHT22;32476;50.002;11.854;2022-09-29T02:19:39;2.90;99.90
46730;DHT22;32476;50.002;11.854;2022-09-29T02:22:07;3.00;99.90
46730;DHT22;32476;50.002;11.854;2022-09-29T02:24:33;2.90;99.90
46730;DHT22;32476;50.002;11.854;2022-09-29T02:27:01;2.90;99.90
46730;DHT22;32476;50.002;11.854;2022-09-29T02:29:29;3.00;99.90
46730;DHT22;32476;50.002;11.854;2022-09-29T02:32:01;3.10;99.90
46730;DHT22;32476;50.002;11.854;2022-09-29T02:34:35;3.10;99.90
46730;DHT22;32476;50.002;11.854;2022-09-29T02:37:20;3.10;99.90
46730;DHT22;32476;50.002;11.854;2022-09-29T02:40:01;3.20;99.90
46730;DHT22;32476;50.002;11.854;2022-09-29T02:45:50;3.20;99.90
46730;DHT22;32476;50.002;11.854;2022-09-29T02:51:39;3.20;99.90
46730;DHT22;32476;50.002;11.854;2022-09-29T03:00:06;3.20;99.90
46730;DHT22;32476;50.002;11.854;2022-09-29T03:02:38;3.20;99.90
46730;DHT22;32476;50.002;11.854;2022-09-29T03:05:07;3.30;99.90
46730;DHT22;32476;50.002;11.854;2022-09-29T03:07:37;3.30;99.90
46730;DHT22;32476;50.002;11.854;2022-09-29T03:10:05;3.40;99.90
46730;DHT22;32476;50.002;11.854;2022-09-29T03:12:33;3.40;99.90
46730;DHT22;32476;50.002;11.854;2022-09-29T03:15:01;3.50;99.90
46730;DHT22;32476;50.002;11.854;2022-09-29T03:17:28;3.50;99.90
46730;DHT22;32476;50.002;11.854;2022-09-29T03:19:54;3.60;99.90
46730;DHT22;32476;50.002;11.854;2022-09-29T03:22:21;3.60;99.90
46730;DHT22;32476;50.002;11.854;2022-09-29T03:24:48;3.70;99.90
46730;DHT22;32476;50.002;11.854;2022-09-29T03:27:14;3.70;99.90
46730;DHT22;32476;50.002;11.854;2022-09-29T03:29:41;3.60;99.90
46730;DHT22;32476;50.002;11.854;2022-09-29T03:32:07;3.60;99.90
46730;DHT22;32476;50.002;11.854;2022-09-29T03:34:33;3.60;99.90
46730;DHT22;32476;50.002;11.854;2022-09-29T03:37:01;3.50;99.90
46730;DHT22;32476;50.002;11.854;2022-09-29T03:39:27;3.50;99.90
46730;DHT22;32476;50.002;11.854;2022-09-29T03:41:54;3.50;99.90
46730;DHT22;32476;50.002;11.854;2022-09-29T03:44:22;3.60;99.90
46730;DHT22;32476;50.002;11.854;2022-09-29T03:46:47;3.50;99.90
46730;DHT22;32476;50.002;11.854;2022-09-29T03:49:14;3.60;99.90
46730;DHT22;32476;50.002;11.854;2022-09-29T03:51:42;3.60;99.90
46730;DHT22;32476;50.002;11.854;2022-09-29T03:54:08;3.60;99.90
46730;DHT22;32476;50.002;11.854;2022-09-29T03:56:36;3.50;99.90
46730;DHT22;32476;50.002;11.854;2022-09-29T03:59:05;3.50;99.90
46730;DHT22;32476;50.002;11.854;2022-09-29T04:01:34;3.50;99.90
46730;DHT22;32476;50.002;11.854;2022-09-29T04:04:04;3.50;99.90
46730;DHT22;32476;50.002;11.854;2022-09-29T04:06:31;3.50;99.90
46730;DHT22;32476;50.002;11.854;2022-09-29T04:08:57;3.40;99.90
46730;DHT22;32476;50.002;11.854;2022-09-29T04:11:24;3.30;99.90
46730;DHT22;32476;50.002;11.854;2022-09-29T04:13:50;3.30;99.90
46730;DHT22;32476;50.002;11.854;2022-09-29T04:16:17;3.20;99.90
46730;DHT22;32476;50.002;11.854;2022-09-29T04:18:44;3.20;99.90
46730;DHT22;32476;50.002;11.854;2022-09-29T04:21:11;3.20;99.90
46730;DHT22;32476;50.002;11.854;2022-09-29T04:23:37;3.20;99.90
46730;DHT22;32476;50.002;11.854;2022-09-29T04:26:05;3.40;99.90
46730;DHT22;32476;50.002;11.854;2022-09-29T04:28:31;3.30;99.90
46730;DHT22;32476;50.002;11.854;2022-09-29T04:30:58;3.40;99.90
46730;DHT22;32476;50.002;11.854;2022-09-29T04:33:26;3.50;99.90
46730;DHT22;32476;50.002;11.854;2022-09-29T04:35:55;3.40;99.90
46730;DHT22;32476;50.002;11.854;2022-09-29T04:38:21;3.30;99.90
46730;DHT22;32476;50.002;11.854;2022-09-29T04:40:49;3.30;99.90
46730;DHT22;32476;50.002;11.854;2022-09-29T04:43:15;3.40;99.90
46730;DHT22;32476;50.002;11.854;2022-09-29T04:45:41;3.40;99.90
46730;DHT22;32476;50.002;11.854;2022-09-29T04:48:09;3.40;99.90
46730;DHT22;32476;50.002;11.854;2022-09-29T04:50:35;3.30;99.90
46730;DHT22;32476;50.002;11.854;2022-09-29T04:53:01;3.20;99.90
46730;DHT22;32476;50.002;11.854;2022-09-29T04:55:28;3.20;99.90
46730;DHT22;32476;50.002;11.854;2022-09-29T04:57:54;3.20;99.90
46730;DHT22;32476;50.002;11.854;2022-09-29T05:00:20;3.30;99.90
46730;DHT22;32476;50.002;11.854;2022-09-29T05:02:47;3.20;99.90
46730;DHT22;32476;50.002;11.854;2022-09-29T05:05:13;3.20;99.90
46730;DHT22;32476;50.002;11.854;2022-09-29T05:07:39;3.10;99.90
46730;DHT22;32476;50.002;11.854;2022-09-29T05:10:08;3.00;99.90
46730;DHT22;32476;50.002;11.854;2022-09-29T05:12:34;2.90;99.90
46730;DHT22;32476;50.002;11.854;2022-09-29T05:15:00;3.00;99.90
46730;DHT22;32476;50.002;11.854;2022-09-29T05:17:28;3.00;99.90
46730;DHT22;32476;50.002;11.854;2022-09-29T05:19:54;3.00;99.90
46730;DHT22;32476;50.002;11.854;2022-09-29T05:22:20;3.00;99.90
46730;DHT22;32476;50.002;11.854;2022-09-29T05:24:53;3.00;99.90
46730;DHT22;32476;50.002;11.854;2022-09-29T05:27:20;3.00;99.90
46730;DHT22;32476;50.002;11.854;2022-09-29T05:29:47;3.10;99.90
46730;DHT22;32476;50.002;11.854;2022-09-29T05:32:15;3.00;99.90
46730;DHT22;32476;50.002;11.854;2022-09-29T05:34:41;2.90;99.90
46730;DHT22;32476;50.002;11.854;2022-09-29T05:37:07;2.90;99.90
46730;DHT22;32476;50.002;11.854;2022-09-29T05:39:35;3.00;99.90
46730;DHT22;32476;50.002;11.854;2022-09-29T05:42:06;2.90;99.90
46730;DHT22;32476;50.002;11.854;2022-09-29T05:44:36;2.90;99.90
46730;DHT22;32476;50.002;11.854;2022-09-29T05:47:03;3.00;99.90
46730;DHT22;32476;50.002;11.854;2022-09-29T05:49:29;3.10;99.90
46730;DHT22;32476;50.002;11.854;2022-09-29T05:51:58;3.10;99.90
46730;DHT22;32476;50.002;11.854;2022-09-29T05:54:24;3.10;99.90
46730;DHT22;32476;50.002;11.854;2022-09-29T05:56:52;3.20;99.90
46730;DHT22;32476;50.002;11.854;2022-09-29T05:59:20;3.20;99.90
46730;DHT22;32476;50.002;11.854;2022-09-29T06:01:46;3.20;99.90
46730;DHT22;32476;50.002;11.854;2022-09-29T06:04:12;3.40;99.90
46730;DHT22;32476;50.002;11.854;2022-09-29T06:06:39;3.50;99.90
46730;DHT22;32476;50.002;11.854;2022-09-29T06:09:05;3.50;99.90
46730;DHT22;32476;50.002;11.854;2022-09-29T06:11:32;3.50;99.90
46730;DHT22;32476;50.002;11.854;2022-09-29T06:14:00;3.60;99.90
46730;DHT22;32476;50.002;11.854;2022-09-29T06:16:28;3.70;99.90
46730;DHT22;32476;50.002;11.854;2022-09-29T06:18:55;3.70;99.90
46730;DHT22;32476;50.002;11.854;2022-09-29T06:21:27;3.70;99.90
46730;DHT22;32476;50.002;11.854;2022-09-29T06:23:55;3.70;99.90
46730;DHT22;32476;50.002;11.854;2022-09-29T06:26:23;3.70;99.90
46730;DHT22;32476;50.002;11.854;2022-09-29T06:28:51;3.80;99.90
46730;DHT22;32476;50.002;11.854;2022-09-29T06:31:20;3.80;99.90
46730;DHT22;32476;50.002;11.854;2022-09-29T06:33:47;3.90;99.90
46730;DHT22;32476;50.002;11.854;2022-09-29T06:36:21;4.00;99.90
46730;DHT22;32476;50.002;11.854;2022-09-29T06:39:10;4.10;99.90
46730;DHT22;32476;50.002;11.854;2022-09-29T06:41:39;4.10;99.90
46730;DHT22;32476;50.002;11.854;2022-09-29T06:44:06;4.10;99.90
46730;DHT22;32476;50.002;11.854;2022-09-29T06:46:32;4.20;99.90
46730;DHT22;32476;50.002;11.854;2022-09-29T06:48:59;4.30;99.90
46730;DHT22;32476;50.002;11.854;2022-09-29T06:51:25;4.40;99.90
46730;DHT22;32476;50.002;11.854;2022-09-29T06:53:51;4.50;99.90
46730;DHT22;32476;50.002;11.854;2022-09-29T06:56:19;4.60;99.90
46730;DHT22;32476;50.002;11.854;2022-09-29T06:58:45;4.60;99.90
46730;DHT22;32476;50.002;11.854;2022-09-29T07:01:11;4.60;99.90
46730;DHT22;32476;50.002;11.854;2022-09-29T07:03:39;4.60;99.90
46730;DHT22;32476;50.002;11.854;2022-09-29T07:06:07;4.80;99.90
46730;DHT22;32476;50.002;11.854;2022-09-29T07:08:34;4.90;99.90
46730;DHT22;32476;50.002;11.854;2022-09-29T07:11:08;4.90;99.90
46730;DHT22;32476;50.002;11.854;2022-09-29T07:13:35;4.90;99.90
46730;DHT22;32476;50.002;11.854;2022-09-29T07:16:06;4.80;99.90
46730;DHT22;32476;50.002;11.854;2022-09-29T07:18:39;4.90;99.90
46730;DHT22;32476;50.002;11.854;2022-09-29T07:21:11;4.90;99.90
46730;DHT22;32476;50.002;11.854;2022-09-29T07:23:43;5.00;99.90
46730;DHT22;32476;50.002;11.854;2022-09-29T07:26:11;5.10;99.90
46730;DHT22;32476;50.002;11.854;2022-09-29T07:28:38;5.30;99.90
46730;DHT22;32476;50.002;11.854;2022-09-29T07:31:17;5.50;99.90
46730;DHT22;32476;50.002;11.854;2022-09-29T07:33:46;5.80;99.90
46730;DHT22;32476;50.002;11.854;2022-09-29T07:36:16;5.90;99.90
46730;DHT22;32476;50.002;11.854;2022-09-29T07:38:45;6.00;99.90
46730;DHT22;32476;50.002;11.854;2022-09-29T07:41:12;6.00;99.90
46730;DHT22;32476;50.002;11.854;2022-09-29T07:43:40;6.10;99.90
46730;DHT22;32476;50.002;11.854;2022-09-29T07:46:06;6.20;99.90
46730;DHT22;32476;50.002;11.854;2022-09-29T07:48:33;6.30;99.90
46730;DHT22;32476;50.002;11.854;2022-09-29T07:51:05;6.40;99.90
46730;DHT22;32476;50.002;11.854;2022-09-29T07:53:36;6.30;99.90
46730;DHT22;32476;50.002;11.854;2022-09-29T07:56:06;6.30;99.90
46730;DHT22;32476;50.002;11.854;2022-09-29T07:58:34;6.30;99.90
46730;DHT22;32476;50.002;11.854;2022-09-29T08:01:01;6.50;99.90
46730;DHT22;32476;50.002;11.854;2022-09-29T08:03:32;6.60;99.90
46730;DHT22;32476;50.002;11.854;2022-09-29T08:05:58;6.80;99.90
46730;DHT22;32476;50.002;11.854;2022-09-29T08:08:24;7.00;99.90
46730;DHT22;32476;50.002;11.854;2022-09-29T08:11:01;7.20;99.90
46730;DHT22;32476;50.002;11.854;2022-09-29T08:13:31;7.40;99.90
46730;DHT22;32476;50.002;11.854;2022-09-29T08:16:00;7.70;99.90
46730;DHT22;32476;50.002;11.854;2022-09-29T08:18:28;7.80;99.90
46730;DHT22;32476;50.002;11.854;2022-09-29T08:20:55;7.90;99.90
46730;DHT22;32476;50.002;11.854;2022-09-29T08:23:23;8.00;99.90
46730;DHT22;32476;50.002;11.854;2022-09-29T08:25:49;8.10;99.90
46730;DHT22;32476;50.002;11.854;2022-09-29T08:28:20;8.20;99.90
46730;DHT22;32476;50.002;11.854;2022-09-29T08:30:47;8.50;99.90
46730;DHT22;32476;50.002;11.854;2022-09-29T08:33:14;8.70;99.90
46730;DHT22;32476;50.002;11.854;2022-09-29T08:35:40;8.80;99.90
46730;DHT22;32476;50.002;11.854;2022-09-29T08:38:08;9.00;99.90
46730;DHT22;32476;50.002;11.854;2022-09-29T08:40:34;9.10;99.90
46730;DHT22;32476;50.002;11.854;2022-09-29T08:45:53;9.60;99.90
46730;DHT22;32476;50.002;11.854;2022-09-29T08:48:28;9.50;99.90
46730;DHT22;32476;50.002;11.854;2022-09-29T08:51:02;9.50;99.90
46730;DHT22;32476;50.002;11.854;2022-09-29T08:53:33;9.40;99.90
46730;DHT22;32476;50.002;11.854;2022-09-29T08:56:07;9.40;99.90
46730;DHT22;32476;50.002;11.854;2022-09-29T08:58:37;9.60;99.90
46730;DHT22;32476;50.002;11.854;2022-09-29T09:01:28;9.60;99.90
46730;DHT22;32476;50.002;11.854;2022-09-29T09:10:06;9.70;99.90
46730;DHT22;32476;50.002;11.854;2022-09-29T09:19:10;10.20;99.90
46730;DHT22;32476;50.002;11.854;2022-09-29T09:21:53;10.60;99.90
46730;DHT22;32476;50.002;11.854;2022-09-29T09:27:03;10.80;99.90
46730;DHT22;32476;50.002;11.854;2022-09-29T09:29:41;10.80;99.90
46730;DHT22;32476;50.002;11.854;2022-09-29T09:32:12;10.90;99.90
46730;DHT22;32476;50.002;11.854;2022-09-29T09:34:46;10.70;99.90
46730;DHT22;32476;50.002;11.854;2022-09-29T09:37:22;10.50;99.90
46730;DHT22;32476;50.002;11.854;2022-09-29T09:39:59;10.50;99.90
46730;DHT22;32476;50.002;11.854;2022-09-29T09:42:34;10.30;99.90
46730;DHT22;32476;50.002;11.854;2022-09-29T09:45:09;10.90;99.90
46730;DHT22;32476;50.002;11.854;2022-09-29T09:48:42;11.00;99.90
46730;DHT22;32476;50.002;11.854;2022-09-29T09:50:46;10.90;99.90
46730;DHT22;32476;50.002;11.854;2022-09-29T09:53:34;11.10;99.90
46730;DHT22;32476;50.002;11.854;2022-09-29T09:56:15;11.10;99.90
46730;DHT22;32476;50.002;11.854;2022-09-29T10:01:52;11.20;99.90
46730;DHT22;32476;50.002;11.854;2022-09-29T10:04:18;11.50;99.90
46730;DHT22;32476;50.002;11.854;2022-09-29T10:06:45;11.70;99.90
46730;DHT22;32476;50.002;11.854;2022-09-29T10:09:13;12.00;99.90
46730;DHT22;32476;50.002;11.854;2022-09-29T10:11:41;11.90;99.90
46730;DHT22;32476;50.002;11.854;2022-09-29T10:14:23;11.60;99.90
46730;DHT22;32476;50.002;11.854;2022-09-29T10:16:58;11.30;99.90
46730;DHT22;32476;50.002;11.854;2022-09-29T10:19:58;11.30;99.90
46730;DHT22;32476;50.002;11.854;2022-09-29T10:22:28;11.30;99.90
46730;DHT22;32476;50.002;11.854;2022-09-29T10:27:52;11.90;99.90
46730;DHT22;32476;50.002;11.854;2022-09-29T10:30:34;12.00;99.90
46730;DHT22;32476;50.002;11.854;2022-09-29T10:33:04;11.60;99.90
46730;DHT22;32476;50.002;11.854;2022-09-29T10:35:40;11.40;99.90
46730;DHT22;32476;50.002;11.854;2022-09-29T10:38:16;11.60;99.90
46730;DHT22;32476;50.002;11.854;2022-09-29T10:40:56;11.90;99.90
46730;DHT22;32476;50.002;11.854;2022-09-29T10:43:39;12.10;99.90
46730;DHT22;32476;50.002;11.854;2022-09-29T10:49:21;11.60;99.90
46730;DHT22;32476;50.002;11.854;2022-09-29T10:52:02;11.50;99.90
46730;DHT22;32476;50.002;11.854;2022-09-29T10:54:35;11.60;99.90
46730;DHT22;32476;50.002;11.854;2022-09-29T10:57:13;11.40;99.90
46730;DHT22;32476;50.002;11.854;2022-09-29T10:59:46;11.10;99.90
46730;DHT22;32476;50.002;11.854;2022-09-29T11:04:56;11.10;99.90
46730;DHT22;32476;50.002;11.854;2022-09-29T11:07:24;11.20;99.90
46730;DHT22;32476;50.002;11.854;2022-09-29T11:09:50;11.50;99.90
46730;DHT22;32476;50.002;11.854;2022-09-29T11:12:27;11.60;99.90
46730;DHT22;32476;50.002;11.854;2022-09-29T11:14:59;11.70;99.90
46730;DHT22;32476;50.002;11.854;2022-09-29T11:17:31;11.60;99.90
46730;DHT22;32476;50.002;11.854;2022-09-29T11:20:05;11.50;99.90
46730;DHT22;32476;50.002;11.854;2022-09-29T11:29:02;11.00;99.90
46730;DHT22;32476;50.002;11.854;2022-09-29T11:31:45;11.00;99.90
46730;DHT22;32476;50.002;11.854;2022-09-29T11:37:41;10.50;99.90
46730;DHT22;32476;50.002;11.854;2022-09-29T11:51:56;10.90;99.90
46730;DHT22;32476;50.002;11.854;2022-09-29T11:55:16;11.00;99.90
46730;DHT22;32476;50.002;11.854;2022-09-29T12:00:54;10.80;99.90
46730;DHT22;32476;50.002;11.854;2022-09-29T12:03:46;10.70;99.90
46730;DHT22;32476;50.002;11.854;2022-09-29T12:11:53;10.60;99.90
46730;DHT22;32476;50.002;11.854;2022-09-29T12:14:59;10.60;99.90
46730;DHT22;32476;50.002;11.854;2022-09-29T12:17:35;10.70;99.90
46730;DHT22;32476;50.002;11.854;2022-09-29T12:20:26;10.50;99.90
46730;DHT22;32476;50.002;11.854;2022-09-29T12:22:58;10.60;99.90
46730;DHT22;32476;50.002;11.854;2022-09-29T12:25:33;10.60;99.90
46730;DHT22;32476;50.002;11.854;2022-09-29T12:28:11;10.70;99.90
46730;DHT22;32476;50.002;11.854;2022-09-29T12:30:49;10.70;99.90
46730;DHT22;32476;50.002;11.854;2022-09-29T12:33:32;10.70;99.90
46730;DHT22;32476;50.002;11.854;2022-09-29T12:36:44;10.80;99.90
46730;DHT22;32476;50.002;11.854;2022-09-29T12:39:48;10.80;99.90
46730;DHT22;32476;50.002;11.854;2022-09-29T12:42:38;10.80;99.90
46730;DHT22;32476;50.002;11.854;2022-09-29T12:45:36;10.90;99.90
46730;DHT22;32476;50.002;11.854;2022-09-29T12:48:32;10.80;99.90
46730;DHT22;32476;50.002;11.854;2022-09-29T12:54:22;10.80;99.90
46730;DHT22;32476;50.002;11.854;2022-09-29T12:57:10;10.80;99.90
46730;DHT22;32476;50.002;11.854;2022-09-29T13:05:49;10.80;99.90
46730;DHT22;32476;50.002;11.854;2022-09-29T13:14:35;10.70;99.90
46730;DHT22;32476;50.002;11.854;2022-09-29T13:17:25;10.70;99.90
46730;DHT22;32476;50.002;11.854;2022-09-29T13:23:14;10.70;99.90
46730;DHT22;32476;50.002;11.854;2022-09-29T13:26:04;10.80;99.90
46730;DHT22;32476;50.002;11.854;2022-09-29T13:28:52;10.90;99.90
46730;DHT22;32476;50.002;11.854;2022-09-29T13:31:24;10.80;99.90
46730;DHT22;32476;50.002;11.854;2022-09-29T13:33:55;10.80;99.90
46730;DHT22;32476;50.002;11.854;2022-09-29T13:39:07;10.70;99.90
46730;DHT22;32476;50.002;11.854;2022-09-29T13:41:45;10.70;99.90
46730;DHT22;32476;50.002;11.854;2022-09-29T13:44:34;10.60;99.90
46730;DHT22;32476;50.002;11.854;2022-09-29T13:47:31;10.60;99.90
46730;DHT22;32476;50.002;11.854;2022-09-29T14:01:04;10.40;99.90
46730;DHT22;32476;50.002;11.854;2022-09-29T14:03:36;10.30;99.90
46730;DHT22;32476;50.002;11.854;2022-09-29T14:06:24;10.20;99.90
46730;DHT22;32476;50.002;11.854;2022-09-29T14:08:57;10.10;99.90
46730;DHT22;32476;50.002;11.854;2022-09-29T14:11:39;10.10;99.90
46730;DHT22;32476;50.002;11.854;2022-09-29T14:14:22;10.00;99.90
46730;DHT22;32476;50.002;11.854;2022-09-29T14:19:51;10.00;99.90
46730;DHT22;32476;50.002;11.854;2022-09-29T14:33:21;9.80;99.90
46730;DHT22;32476;50.002;11.854;2022-09-29T14:38:53;9.70;99.90
46730;DHT22;32476;50.002;11.854;2022-09-29T14:41:30;9.80;99.90
46730;DHT22;32476;50.002;11.854;2022-09-29T14:47:43;9.60;99.90
46730;DHT22;32476;50.002;11.854;2022-09-29T14:53:43;9.70;99.90
46730;DHT22;32476;50.002;11.854;2022-09-29T15:02:24;9.60;99.90
46730;DHT22;32476;50.002;11.854;2022-09-29T15:04:51;9.60;99.90
46730;DHT22;32476;50.002;11.854;2022-09-29T15:07:21;9.60;99.90
46730;DHT22;32476;50.002;11.854;2022-09-29T15:09:54;9.50;99.90
46730;DHT22;32476;50.002;11.854;2022-09-29T15:12:29;9.50;99.90
46730;DHT22;32476;50.002;11.854;2022-09-29T15:14:56;9.50;99.90
46730;DHT22;32476;50.002;11.854;2022-09-29T15:23:33;9.40;99.90
46730;DHT22;32476;50.002;11.854;2022-09-29T15:26:31;9.30;99.90
46730;DHT22;32476;50.002;11.854;2022-09-29T15:28:59;9.30;99.90
46730;DHT22;32476;50.002;11.854;2022-09-29T15:31:28;9.30;99.90
46730;DHT22;32476;50.002;11.854;2022-09-29T15:33:56;9.30;99.90
46730;DHT22;32476;50.002;11.854;2022-09-29T15:36:25;9.10;99.90
46730;DHT22;32476;50.002;11.854;2022-09-29T15:41:33;9.10;99.90
46730;DHT22;32476;50.002;11.854;2022-09-29T15:44:19;9.00;99.90
46730;DHT22;32476;50.002;11.854;2022-09-29T15:46:55;9.00;99.90
46730;DHT22;32476;50.002;11.854;2022-09-29T15:49:23;9.00;99.90
46730;DHT22;32476;50.002;11.854;2022-09-29T15:52:02;9.00;99.90
46730;DHT22;32476;50.002;11.854;2022-09-29T15:54:32;8.90;99.90
46730;DHT22;32476;50.002;11.854;2022-09-29T15:57:44;8.90;99.90
46730;DHT22;32476;50.002;11.854;2022-09-29T16:05:51;8.90;99.90
46730;DHT22;32476;50.002;11.854;2022-09-29T16:08:24;8.80;99.90
46730;DHT22;32476;50.002;11.854;2022-09-29T16:10:59;8.80;99.90
46730;DHT22;32476;50.002;11.854;2022-09-29T16:13:33;8.70;99.90
46730;DHT22;32476;50.002;11.854;2022-09-29T16:16:05;8.70;99.90
46730;DHT22;32476;50.002;11.854;2022-09-29T16:18:46;8.60;99.90
46730;DHT22;32476;50.002;11.854;2022-09-29T16:21:16;8.50;99.90
46730;DHT22;32476;50.002;11.854;2022-09-29T16:24:15;8.50;99.90
46730;DHT22;32476;50.002;11.854;2022-09-29T16:26:52;8.50;99.90
46730;DHT22;32476;50.002;11.854;2022-09-29T16:35:39;8.40;99.90
46730;DHT22;32476;50.002;11.854;2022-09-29T16:38:39;8.40;99.90
46730;DHT22;32476;50.002;11.854;2022-09-29T16:43:40;8.30;99.90
46730;DHT22;32476;50.002;11.854;2022-09-29T16:46:16;8.30;99.90
46730;DHT22;32476;50.002;11.854;2022-09-29T16:48:44;8.30;99.90
46730;DHT22;32476;50.002;11.854;2022-09-29T16:51:21;8.20;99.90
46730;DHT22;32476;50.002;11.854;2022-09-29T16:53:49;8.20;99.90
46730;DHT22;32476;50.002;11.854;2022-09-29T16:56:25;8.20;99.90
46730;DHT22;32476;50.002;11.854;2022-09-29T16:59:13;8.10;99.90
46730;DHT22;32476;50.002;11.854;2022-09-29T17:01:44;8.10;99.90
46730;DHT22;32476;50.002;11.854;2022-09-29T17:04:13;8.10;99.90
46730;DHT22;32476;50.002;11.854;2022-09-29T17:06:44;8.10;99.90
46730;DHT22;32476;50.002;11.854;2022-09-29T17:09:22;8.00;99.90
46730;DHT22;32476;50.002;11.854;2022-09-29T17:11:50;8.00;99.90
46730;DHT22;32476;50.002;11.854;2022-09-29T17:14:17;8.00;99.90
46730;DHT22;32476;50.002;11.854;2022-09-29T17:16:44;7.90;99.90
46730;DHT22;32476;50.002;11.854;2022-09-29T17:19:10;7.90;99.90
46730;DHT22;32476;50.002;11.854;2022-09-29T17:21:38;7.90;99.90
46730;DHT22;32476;50.002;11.854;2022-09-29T17:24:04;7.90;99.90
46730;DHT22;32476;50.002;11.854;2022-09-29T17:26:42;7.80;99.90
46730;DHT22;32476;50.002;11.854;2022-09-29T17:29:32;7.80;99.90
46730;DHT22;32476;50.002;11.854;2022-09-29T17:31:59;7.80;99.90
46730;DHT22;32476;50.002;11.854;2022-09-29T17:34:27;7.80;99.90
46730;DHT22;32476;50.002;11.854;2022-09-29T17:36:59;7.80;99.90
46730;DHT22;32476;50.002;11.854;2022-09-29T17:39:26;7.80;99.90
46730;DHT22;32476;50.002;11.854;2022-09-29T17:41:52;7.70;99.90
46730;DHT22;32476;50.002;11.854;2022-09-29T17:44:20;7.60;99.90
46730;DHT22;32476;50.002;11.854;2022-09-29T17:46:46;7.60;99.90
46730;DHT22;32476;50.002;11.854;2022-09-29T17:49:13;7.60;99.90
46730;DHT22;32476;50.002;11.854;2022-09-29T17:51:42;7.60;99.90
46730;DHT22;32476;50.002;11.854;2022-09-29T17:54:08;7.60;99.90
46730;DHT22;32476;50.002;11.854;2022-09-29T17:56:39;7.50;99.90
46730;DHT22;32476;50.002;11.854;2022-09-29T17:59:08;7.50;99.90
46730;DHT22;32476;50.002;11.854;2022-09-29T18:01:35;7.40;99.90
46730;DHT22;32476;50.002;11.854;2022-09-29T18:04:03;7.40;99.90
46730;DHT22;32476;50.002;11.854;2022-09-29T18:06:31;7.40;99.90
46730;DHT22;32476;50.002;11.854;2022-09-29T18:09:13;7.40;99.90
46730;DHT22;32476;50.002;11.854;2022-09-29T18:11:41;7.40;99.90
46730;DHT22;32476;50.002;11.854;2022-09-29T18:14:08;7.40;99.90
46730;DHT22;32476;50.002;11.854;2022-09-29T18:16:34;7.40;99.90
46730;DHT22;32476;50.002;11.854;2022-09-29T18:19:02;7.40;99.90
46730;DHT22;32476;50.002;11.854;2022-09-29T18:21:28;7.30;99.90
46730;DHT22;32476;50.002;11.854;2022-09-29T18:23:55;7.30;99.90
46730;DHT22;32476;50.002;11.854;2022-09-29T18:26:23;7.30;99.90
46730;DHT22;32476;50.002;11.854;2022-09-29T18:28:49;7.20;99.90
46730;DHT22;32476;50.002;11.854;2022-09-29T18:31:23;7.20;99.90
46730;DHT22;32476;50.002;11.854;2022-09-29T18:33:52;7.20;99.90
46730;DHT22;32476;50.002;11.854;2022-09-29T18:36:19;7.20;99.90
46730;DHT22;32476;50.002;11.854;2022-09-29T18:38:46;7.20;99.90
46730;DHT22;32476;50.002;11.854;2022-09-29T18:41:16;7.20;99.90
46730;DHT22;32476;50.002;11.854;2022-09-29T18:43:45;7.10;99.90
46730;DHT22;32476;50.002;11.854;2022-09-29T18:46:13;7.00;99.90